サンクトペテルブルク の空港の天気 - METARとTAF

プルコヴォ空港(サンクトペテルブルグ) ( ULLI / LED ) - ロシア サンクトペテルブルク
飛行場実況気象(Metar)
観測時間01/18 12:30 MSK (01/18 09:30 UTC)
風向・風速東 6m/s
視程2200m
天気現象弱い雪 低い地吹雪
全天の4割程度の雲 雲底高度 270m
全天の8割程度の雲 雲底高度 730m
気温-7℃
湿度93%
気圧1001hPa
METARULLI 180930Z 10006MPS 2200 -SN DRSN SCT009 BKN024 M07/M08 Q1001 R10R/452037 R10L/452036 TEMPO 0700 +SN VV004
過去の天気等 Google飛行場航空写真 Wunderground天気予報

過去48時間のMETAR

飛行場予報(TAF)
発表時間: 1/18 10:57 MSK (1/18 07:57 UTC)
予報対象時間: 18日12時 MSK ~ 19日12時 MSK
風向・風速東南東 7m/s
視程3,100m
天気現象弱い雪 低い地吹雪
全天の8割程度の雲 雲底高度 210m
全天の8割程度の雲 雲底高度 610m
18日12時 MSK ~ 18日24時 MSK に一時的に
風向・風速南東 6m/s 瞬間風速 11m/s
視程700m
天気現象強い雪 高い地吹雪
全天を覆う雲 鉛直視程 120m
19日0時 MSK ~ 19日2時 MSK に徐々に
風向・風速南南東 3m/s 瞬間風速 8m/s
視程6,000m
天気現象運行に影響にある天気現象が終了
19日0時 MSK ~ 19日12時 MSK に一時的に
視程3,100m
天気現象弱いしゅう雪 もや
全天の8割程度の雲 雲底高度 180m
全天の8割程度の積乱雲 雲底高度 370m
TAF ULLI 180757Z 1809/1909 11007MPS 3100 -SN DRSN BKN007 BKN020
TEMPO 1809/1821 14006G11MPS 0700 +SN BLSN VV004
BECMG 1821/1823 16003G08MPS 6000 NSW
TEMPO 1821/1909 3100 -SHSN BR BKN006 BKN012CB